Time;durP1;ratioP1;P1;durP2;ratioP2;P2;SDS_P1;SDS_P2;PMS_P1;PMS_P2;Temp;Humidity;BMP_temperature;BMP_pressure;BME280_temperature;BME280_humidity;BME280_pressure;Samples;Min_cycle;Max_cycle;Signal;HPM_P1;HPM_P2
2022/05/25 00:01:48;;;;;;;12.05;6.93;;;;;;;16.23;100.00;92964.09;4991279;28;20074;-82
2022/05/25 00:04:16;;;;;;;9.30;7.25;;;;;;;16.13;100.00;92967.41;4990603;28;20919;-81
2022/05/25 00:06:43;;;;;;;13.13;7.57;;;;;;;16.04;100.00;92974.88;4990929;28;20101;-80
2022/05/25 00:09:10;;;;;;;11.15;7.63;;;;;;;15.96;100.00;92967.56;4991012;28;20042;-81
2022/05/25 00:11:38;;;;;;;13.10;7.80;;;;;;;15.88;100.00;92973.97;4990449;28;20054;-81
2022/05/25 00:14:06;;;;;;;9.13;6.63;;;;;;;15.82;100.00;92973.13;4990557;28;20057;-81
2022/05/25 00:16:33;;;;;;;9.98;7.32;;;;;;;15.75;100.00;92970.75;4990608;28;20062;-80
2022/05/25 00:21:43;;;;;;;11.07;7.90;;;;;;;15.62;100.00;92977.13;4989565;28;20173;-80
2022/05/25 00:24:10;;;;;;;13.80;7.75;;;;;;;15.54;100.00;92975.00;4990450;28;20057;-80
2022/05/25 00:26:38;;;;;;;11.55;7.55;;;;;;;15.53;100.00;92983.78;4990533;28;20047;-81
2022/05/25 00:29:05;;;;;;;12.15;7.82;;;;;;;15.56;100.00;92977.34;4990279;28;20525;-81
2022/05/25 00:31:33;;;;;;;12.43;7.75;;;;;;;15.59;100.00;92974.25;4990361;28;20085;-81
2022/05/25 00:34:00;;;;;;;12.20;7.70;;;;;;;15.46;100.00;92957.31;4990154;28;20050;-81
2022/05/25 00:36:27;;;;;;;11.23;6.82;;;;;;;15.59;100.00;92982.78;4988436;28;20046;-81
2022/05/25 00:38:54;;;;;;;9.05;6.95;;;;;;;15.35;100.00;92946.88;4990290;28;20508;-81
2022/05/25 00:41:24;;;;;;;11.25;8.18;;;;;;;15.46;100.00;92968.44;4989958;28;20058;-80
2022/05/25 00:43:52;;;;;;;9.02;7.22;;;;;;;15.49;100.00;92975.72;4989872;28;20074;-81
2022/05/25 00:46:21;;;;;;;10.68;7.38;;;;;;;15.47;100.00;92979.59;4990337;28;20066;-82
2022/05/25 00:48:52;;;;;;;10.30;7.47;;;;;;;15.31;100.00;92957.94;4989966;28;20053;-82
2022/05/25 00:51:24;;;;;;;10.18;7.13;;;;;;;15.34;100.00;92986.72;4989461;28;20042;-81
2022/05/25 00:53:57;;;;;;;10.55;7.50;;;;;;;15.19;100.00;92982.16;4990245;28;20050;-81
2022/05/25 00:56:27;;;;;;;11.20;7.05;;;;;;;15.16;100.00;92985.25;4989797;28;20129;-82
2022/05/25 00:59:00;;;;;;;10.77;7.13;;;;;;;15.12;100.00;92981.59;4989626;28;20561;-82
2022/05/25 01:01:28;;;;;;;12.02;8.27;;;;;;;15.09;100.00;92982.09;4988116;28;20042;-80
2022/05/25 01:03:55;;;;;;;10.82;7.65;;;;;;;15.04;100.00;92976.84;4989348;28;20050;-81
2022/05/25 01:06:51;;;;;;;12.63;7.95;;;;;;;15.02;100.00;92977.09;4989866;28;20058;-81
2022/05/25 01:09:28;;;;;;;10.43;7.70;;;;;;;15.04;100.00;92989.78;4988537;28;20065;-82
2022/05/25 01:12:11;;;;;;;10.27;8.35;;;;;;;15.01;100.00;92990.25;4989254;28;20505;-80
2022/05/25 01:14:56;;;;;;;13.80;8.68;;;;;;;14.73;100.00;92990.19;4988964;28;20050;-80
2022/05/25 01:17:36;;;;;;;11.82;8.18;;;;;;;14.65;100.00;92988.03;4986776;28;20061;-80
2022/05/25 01:20:14;;;;;;;12.05;9.38;;;;;;;14.62;100.00;92998.84;4988548;28;20042;-82
2022/05/25 01:23:17;;;;;;;12.27;9.45;;;;;;;14.32;100.00;92958.66;4989257;28;20070;-80
2022/05/25 01:26:16;;;;;;;14.27;10.20;;;;;;;14.42;100.00;92990.59;4989616;28;20042;-80
2022/05/25 01:29:01;;;;;;;13.05;9.20;;;;;;;14.40;100.00;92995.19;4989394;28;20056;-81
2022/05/25 01:31:36;;;;;;;16.77;10.48;;;;;;;14.37;100.00;92990.53;4989369;28;20042;-81
2022/05/25 01:34:08;;;;;;;18.23;10.68;;;;;;;14.45;100.00;92991.94;4988181;28;20038;-82
2022/05/25 01:36:42;;;;;;;18.90;10.15;;;;;;;14.43;100.00;92989.56;4986300;28;20725;-81
2022/05/25 01:39:14;;;;;;;17.83;10.95;;;;;;;14.39;100.00;92979.94;4984910;28;20064;-81
2022/05/25 01:41:50;;;;;;;18.73;11.70;;;;;;;14.42;100.00;92984.63;4991887;28;20054;-81
2022/05/25 01:44:30;;;;;;;13.77;10.10;;;;;;;14.48;100.00;92988.09;4991323;28;20052;-83
2022/05/25 01:47:05;;;;;;;20.00;11.15;;;;;;;14.48;100.00;92990.66;4988912;28;20058;-83
2022/05/25 01:49:39;;;;;;;25.55;12.25;;;;;;;14.59;100.00;92997.53;4990946;28;20046;-82
2022/05/25 01:52:10;;;;;;;16.08;10.38;;;;;;;14.55;100.00;92976.53;4989247;28;20038;-82
2022/05/25 01:54:49;;;;;;;15.98;10.48;;;;;;;14.73;100.00;92997.16;4986170;28;20056;-82
2022/05/25 01:57:17;;;;;;;17.60;10.35;;;;;;;14.52;100.00;92978.81;4990836;28;20042;-82
2022/05/25 01:59:45;;;;;;;17.88;9.77;;;;;;;14.71;100.00;92999.97;4988707;28;20062;-82
2022/05/25 02:05:01;;;;;;;20.95;12.65;;;;;;;14.67;100.00;93004.84;4988581;28;20526;-83
2022/05/25 02:07:50;;;;;;;17.15;11.93;;;;;;;14.49;100.00;93016.25;4991256;28;20077;-83
2022/05/25 02:10:34;;;;;;;19.92;13.30;;;;;;;14.45;100.00;93024.72;4991165;28;20071;-83
2022/05/25 02:13:23;;;;;;;20.95;13.38;;;;;;;14.26;100.00;93019.81;4989437;28;20056;-81
2022/05/25 02:16:03;;;;;;;19.70;12.57;;;;;;;13.94;100.00;93026.34;4986380;28;20050;-81
2022/05/25 02:18:37;;;;;;;23.27;14.50;;;;;;;13.70;100.00;93030.88;4989387;28;20041;-82
2022/05/25 02:21:09;;;;;;;20.60;12.30;;;;;;;13.56;100.00;93036.31;4992777;28;20054;-80
2022/05/25 02:23:43;;;;;;;20.83;13.48;;;;;;;13.44;100.00;93033.75;4997323;28;20046;-80
2022/05/25 02:26:15;;;;;;;23.20;13.32;;;;;;;13.49;100.00;93044.22;4998741;28;20066;-80
2022/05/25 02:28:45;;;;;;;20.48;13.30;;;;;;;13.43;100.00;93039.16;4999111;28;20079;-81
2022/05/25 02:31:17;;;;;;;19.25;12.57;;;;;;;13.34;100.00;93028.41;4998964;28;20046;-85
2022/05/25 02:33:49;;;;;;;17.90;12.98;;;;;;;13.42;100.00;93053.06;4998587;28;20555;-85
2022/05/25 02:36:17;;;;;;;19.98;13.23;;;;;;;13.39;100.00;93030.31;4998916;28;20042;-85
2022/05/25 02:38:45;;;;;;;20.50;13.60;;;;;;;13.59;100.00;93068.59;4999086;28;20057;-84
2022/05/25 02:41:26;;;;;;;24.58;12.82;;;;;;;13.55;100.00;93049.44;4996542;28;20049;-81
2022/05/25 02:43:52;;;;;;;20.17;13.10;;;;;;;13.65;100.00;93064.34;4989732;28;20445;-79
2022/05/25 02:46:19;;;;;;;23.02;14.15;;;;;;;13.71;100.00;93065.97;4988541;28;20050;-78
2022/05/25 02:48:48;;;;;;;26.42;14.18;;;;;;;13.83;100.00;93056.38;4988505;28;20046;-79
2022/05/25 02:51:14;;;;;;;26.52;14.18;;;;;;;13.74;100.00;93029.34;4988146;28;20050;-79
2022/05/25 02:53:41;;;;;;;17.52;12.13;;;;;;;14.09;100.00;93061.16;4988346;28;20053;-79
2022/05/25 02:56:08;;;;;;;17.05;11.60;;;;;;;14.16;100.00;93072.91;4988675;28;20038;-79
2022/05/25 02:58:35;;;;;;;17.33;11.13;;;;;;;14.22;100.00;93072.97;4988410;28;20046;-79
2022/05/25 03:01:02;;;;;;;17.20;12.30;;;;;;;14.27;100.00;93067.88;4988536;28;20117;-83
2022/05/25 03:03:29;;;;;;;17.45;12.18;;;;;;;14.17;100.00;93047.88;4988200;28;20058;-82
2022/05/25 03:05:57;;;;;;;15.27;10.80;;;;;;;14.34;100.00;93067.75;4989531;28;20200;-85
2022/05/25 03:08:26;;;;;;;16.00;11.15;;;;;;;14.16;100.00;93035.94;4992022;28;20050;-85
2022/05/25 03:10:53;;;;;;;17.60;11.68;;;;;;;14.43;100.00;93085.19;4991905;28;20043;-84
2022/05/25 03:13:20;;;;;;;18.90;12.18;;;;;;;14.45;100.00;93079.00;4991647;28;20054;-85
2022/05/25 03:15:46;;;;;;;20.85;12.20;;;;;;;14.46;100.00;93089.09;4991531;28;20050;-84
2022/05/25 03:18:13;;;;;;;18.20;10.73;;;;;;;14.46;100.00;93090.88;4992103;28;20046;-84
2022/05/25 03:20:40;;;;;;;19.70;10.48;;;;;;;14.51;100.00;93096.13;4991858;28;20126;-83
2022/05/25 03:23:08;;;;;;;16.15;9.10;;;;;;;14.36;100.00;93071.66;4991798;28;20094;-84
2022/05/25 03:25:35;;;;;;;13.07;7.45;;;;;;;14.49;100.00;93095.59;4991349;28;20088;-82
2022/05/25 03:28:03;;;;;;;11.80;7.43;;;;;;;14.52;100.00;93102.88;4992032;28;20050;-83
2022/05/25 03:30:30;;;;;;;9.48;7.32;;;;;;;14.51;100.00;93099.50;4991627;28;20065;-82
2022/05/25 03:32:56;;;;;;;10.98;6.57;;;;;;;14.43;100.00;93090.34;4991215;28;20501;-83
2022/05/25 03:35:23;;;;;;;13.00;7.43;;;;;;;14.46;100.00;93096.84;4991557;28;20050;-82
2022/05/25 03:37:50;;;;;;;13.30;8.05;;;;;;;14.11;100.00;93049.56;4991102;28;20532;-83
2022/05/25 03:40:19;;;;;;;13.05;8.05;;;;;;;14.13;100.00;93075.94;4991080;28;20046;-82
2022/05/25 03:42:48;;;;;;;11.43;8.10;;;;;;;14.25;100.00;93099.13;4991830;28;20605;-82
2022/05/25 03:45:16;;;;;;;14.27;8.10;;;;;;;14.31;100.00;93107.75;4993372;28;20046;-83
2022/05/25 03:47:43;;;;;;;16.17;9.13;;;;;;;14.26;100.00;93099.91;4991319;28;20042;-83
2022/05/25 03:50:11;;;;;;;17.85;8.25;;;;;;;14.50;100.00;93120.41;4991284;28;20054;-83
2022/05/25 03:52:38;;;;;;;16.55;8.90;;;;;;;14.49;100.00;93105.94;4991274;28;20050;-83
2022/05/25 03:55:06;;;;;;;19.60;10.15;;;;;;;14.69;100.00;93128.72;4991395;28;20516;-83
2022/05/25 03:57:35;;;;;;;17.77;10.68;;;;;;;14.67;100.00;93100.50;4991303;28;20105;-83
2022/05/25 04:00:01;;;;;;;15.65;8.57;;;;;;;14.85;100.00;93121.19;4991057;28;20042;-83
2022/05/25 04:02:28;;;;;;;20.75;10.27;;;;;;;14.83;100.00;93100.75;4991025;28;20062;-81
2022/05/25 04:05:08;;;;;;;17.80;8.68;;;;;;;14.96;100.00;93115.91;4990438;28;20056;-80
2022/05/25 04:07:36;;;;;;;18.75;9.48;;;;;;;15.12;100.00;93129.03;4991195;28;20082;-80
2022/05/25 04:10:05;;;;;;;13.77;9.05;;;;;;;15.11;100.00;93114.56;4991102;28;20070;-81
2022/05/25 04:12:35;;;;;;;19.17;10.15;;;;;;;15.13;100.00;93107.31;4990664;28;20050;-80
2022/05/25 04:15:02;;;;;;;17.40;8.77;;;;;;;15.31;100.00;93128.75;4990682;28;20053;-81
2022/05/25 04:17:29;;;;;;;18.80;9.38;;;;;;;15.35;100.00;93135.00;4989558;28;20061;-81
2022/05/25 04:19:57;;;;;;;13.52;8.38;;;;;;;15.35;100.00;93117.69;4990557;28;20046;-81
2022/05/25 04:22:24;;;;;;;16.23;8.85;;;;;;;15.29;100.00;93107.50;4990509;28;20046;-80
2022/05/25 04:24:51;;;;;;;12.60;9.18;;;;;;;15.46;100.00;93120.41;4992345;28;20056;-80
2022/05/25 04:27:18;;;;;;;15.48;9.23;;;;;;;15.57;100.00;93121.28;4990103;28;20493;-80
2022/05/25 04:29:46;;;;;;;18.70;9.38;;;;;;;15.61;100.00;93115.38;4990481;28;20512;-80
2022/05/25 04:32:13;;;;;;;14.35;8.80;;;;;;;15.73;100.00;93124.81;4990465;28;20453;-80
2022/05/25 04:34:40;;;;;;;13.88;8.88;;;;;;;15.80;100.00;93132.38;4990524;28;20057;-83
2022/05/25 04:39:51;;;;;;;18.50;9.02;;;;;;;15.47;100.00;93122.72;4991843;28;20412;-83
2022/05/25 04:42:18;;;;;;;14.40;9.20;;;;;;;15.30;100.00;93119.41;4989679;28;20058;-84
2022/05/25 04:44:47;;;;;;;15.68;9.18;;;;;;;15.15;100.00;93113.06;4990056;28;20920;-80
2022/05/25 04:47:14;;;;;;;16.10;8.70;;;;;;;15.31;100.00;93129.53;4987376;28;20057;-83
2022/05/25 04:49:43;;;;;;;17.05;9.25;;;;;;;15.46;100.00;93128.16;4988410;28;20054;-84
2022/05/25 04:52:10;;;;;;;20.17;9.68;;;;;;;15.57;100.00;93116.91;4990209;28;20050;-85
2022/05/25 04:54:37;;;;;;;14.25;8.98;;;;;;;15.64;100.00;93116.69;4989988;28;20046;-84
2022/05/25 04:57:23;;;;;;;18.45;9.45;;;;;;;15.71;100.00;93126.84;4989800;28;20066;-82
2022/05/25 04:59:52;;;;;;;19.02;10.65;;;;;;;15.53;100.00;93096.91;4990682;28;20477;-83
2022/05/25 05:02:20;;;;;;;19.52;11.73;;;;;;;15.47;100.00;93111.59;4989566;28;20050;-81
2022/05/25 05:04:47;;;;;;;20.35;10.45;;;;;;;15.62;100.00;93116.16;4989468;28;20053;-81
2022/05/25 05:07:15;;;;;;;20.10;11.73;;;;;;;15.76;100.00;93119.16;4989579;28;20043;-81
2022/05/25 05:09:44;;;;;;;23.33;11.32;;;;;;;15.97;100.00;93127.91;4989815;28;20038;-81
2022/05/25 05:12:12;;;;;;;30.52;12.60;;;;;;;15.84;100.00;93092.03;4989245;28;20057;-83
2022/05/25 05:14:39;;;;;;;25.20;11.70;;;;;;;16.37;100.00;93130.31;4989209;28;20050;-82
2022/05/25 05:17:08;;;;;;;28.65;12.95;;;;;;;16.60;100.00;93131.81;4989435;28;20047;-82
2022/05/25 05:19:35;;;;;;;21.85;12.18;;;;;;;16.44;100.00;93115.38;4989904;28;20061;-81
2022/05/25 05:22:02;;;;;;;25.80;12.70;;;;;;;16.75;100.00;93143.31;4989534;28;20042;-81
2022/05/25 05:24:31;;;;;;;33.35;13.38;;;;;;;16.86;100.00;93133.78;4989083;28;20054;-81
2022/05/25 05:26:58;;;;;;;31.55;13.30;;;;;;;16.80;100.00;93120.00;4988751;28;20046;-81
2022/05/25 05:29:28;;;;;;;36.38;14.10;;;;;;;16.95;100.00;93120.06;4988955;28;20078;-80
2022/05/25 05:31:55;;;;;;;40.28;15.75;;;;;;;17.35;100.00;93149.13;4988994;28;20548;-81
2022/05/25 05:34:23;;;;;;;44.78;15.90;;;;;;;17.51;100.00;93136.19;4989274;28;20050;-81
2022/05/25 05:36:55;;;;;;;34.92;13.77;;;;;;;17.59;100.00;93155.72;4989540;28;20050;-81
2022/05/25 05:39:26;;;;;;;27.52;12.85;;;;;;;17.77;100.00;93139.66;4991096;28;20076;-82
2022/05/25 05:42:03;;;;;;;35.10;14.45;;;;;;;17.95;100.00;93144.63;4991086;28;20050;-81
2022/05/25 05:44:35;;;;;;;32.15;12.63;;;;;;;18.06;100.00;93122.03;4989033;28;20057;-84
2022/05/25 05:47:05;;;;;;;31.15;13.45;;;;;;;18.50;100.00;93154.56;4989106;28;20053;-84
2022/05/25 05:49:33;;;;;;;31.75;13.73;;;;;;;18.75;100.00;93156.38;4988793;28;20867;-81
2022/05/25 05:52:00;;;;;;;28.67;11.70;;;;;;;18.88;100.00;93159.53;4989431;28;20069;-83
2022/05/25 05:54:31;;;;;;;29.10;10.65;;;;;;;18.97;100.00;93144.91;4989077;28;20043;-81
2022/05/25 05:56:58;;;;;;;38.38;10.40;;;;;;;19.41;100.00;93166.19;4988310;28;20565;-82
2022/05/25 05:59:25;;;;;;;25.38;11.18;;;;;;;19.67;100.00;93153.06;4989088;28;20038;-83
2022/05/25 06:01:52;;;;;;;25.08;10.70;;;;;;;19.96;100.00;93155.00;4989126;28;20069;-82
2022/05/25 06:04:22;;;;;;;28.20;12.23;;;;;;;20.38;100.00;93179.81;4990416;28;20097;-83
2022/05/25 06:06:51;;;;;;;26.60;10.90;;;;;;;20.55;100.00;93178.66;4988719;28;20129;-84
2022/05/25 06:09:17;;;;;;;33.15;10.23;;;;;;;20.61;99.99;93185.41;4987098;28;20294;-83
2022/05/25 06:11:44;;;;;;;33.35;11.15;;;;;;;20.58;99.23;93157.22;4988410;28;20055;-81
2022/05/25 06:14:12;;;;;;;33.17;10.38;;;;;;;21.09;98.03;93182.13;4988668;28;20054;-83
2022/05/25 06:19:29;;;;;;;30.05;10.40;;;;;;;21.67;94.29;93166.63;4987192;28;20061;-83
2022/05/25 06:22:04;;;;;;;23.20;9.80;;;;;;;22.14;92.72;93179.91;4988061;28;20053;-82
2022/05/25 06:24:36;;;;;;;22.00;9.85;;;;;;;22.54;90.65;93184.09;4988413;28;20057;-83
2022/05/25 06:27:04;;;;;;;34.42;10.13;;;;;;;22.64;87.99;93142.03;4988686;28;20053;-82
2022/05/25 06:29:31;;;;;;;35.95;10.00;;;;;;;22.95;86.90;93174.78;4988242;28;20535;-83
2022/05/25 06:32:04;;;;;;;28.50;11.55;;;;;;;23.41;84.09;93164.59;4988223;28;20042;-82
2022/05/25 06:34:31;;;;;;;30.75;9.98;;;;;;;23.67;82.20;93177.22;4988420;28;20145;-82
2022/05/25 06:36:58;;;;;;;26.30;10.52;;;;;;;23.86;82.81;93172.63;4988395;28;20050;-85
2022/05/25 06:39:26;;;;;;;36.67;8.90;;;;;;;24.28;81.52;93177.03;4989029;28;20046;-82
2022/05/25 06:41:53;;;;;;;32.83;10.00;;;;;;;24.50;79.97;93189.41;4991230;28;20062;-81
2022/05/25 06:44:20;;;;;;;29.52;8.43;;;;;;;24.60;78.63;93158.72;4988709;28;20053;-85
2022/05/25 06:46:48;;;;;;;28.85;10.18;;;;;;;24.81;77.99;93182.66;4990735;28;20057;-83
2022/05/25 06:49:17;;;;;;;29.50;8.43;;;;;;;25.12;77.44;93202.19;4991864;28;20046;-83
2022/05/25 06:51:43;;;;;;;25.88;9.63;;;;;;;24.86;77.71;93200.97;4991864;28;20101;-84
2022/05/25 06:54:13;;;;;;;27.98;9.18;;;;;;;25.02;77.05;93164.56;4991938;28;20046;-84
2022/05/25 06:56:42;;;;;;;23.30;8.25;;;;;;;25.61;73.92;93210.16;4994097;28;20390;-84
2022/05/25 06:59:09;;;;;;;21.75;7.65;;;;;;;25.80;71.67;93211.75;4992323;28;20050;-84
2022/05/25 07:01:38;;;;;;;19.40;7.53;;;;;;;25.78;71.01;93148.91;4991635;28;20042;-83
2022/05/25 07:04:05;;;;;;;21.95;6.38;;;;;;;26.61;70.10;93195.75;4992360;28;20042;-82
2022/05/25 07:06:35;;;;;;;16.65;6.00;;;;;;;26.98;69.15;93205.97;4991982;28;20047;-82
2022/05/25 07:09:01;;;;;;;18.73;6.47;;;;;;;27.36;66.21;93197.34;4992054;28;20056;-82
2022/05/25 07:11:28;;;;;;;23.10;6.90;;;;;;;27.49;62.12;93198.19;4991748;28;20402;-82
2022/05/25 07:13:58;;;;;;;19.02;7.93;;;;;;;27.57;61.91;93200.03;4993523;28;20053;-82
2022/05/25 07:16:25;;;;;;;22.83;7.50;;;;;;;27.74;59.35;93204.50;4992126;28;20038;-81
2022/05/25 07:18:52;;;;;;;22.75;7.55;;;;;;;28.03;60.78;93204.03;4992097;28;20046;-82
2022/05/25 07:21:21;;;;;;;20.80;6.28;;;;;;;28.08;60.35;93186.13;4991499;28;20827;-82
2022/05/25 07:23:50;;;;;;;19.15;6.47;;;;;;;27.86;58.14;93209.06;4991472;28;20046;-82
2022/05/25 07:26:19;;;;;;;24.05;9.55;;;;;;;27.11;61.89;93191.81;4991583;28;20054;-81
2022/05/25 07:28:51;;;;;;;24.33;6.88;;;;;;;26.90;61.54;93160.81;4991674;28;20038;-81
2022/05/25 07:31:22;;;;;;;16.73;6.03;;;;;;;27.43;61.16;93194.97;4991369;28;20062;-82
2022/05/25 07:33:54;;;;;;;17.17;6.05;;;;;;;27.99;60.37;93198.59;4991353;28;20057;-82
2022/05/25 07:36:22;;;;;;;17.50;6.13;;;;;;;28.25;58.77;93181.84;4991404;28;20151;-82
2022/05/25 07:38:52;;;;;;;19.85;6.53;;;;;;;28.40;56.35;93199.75;4991470;28;20042;-82
2022/05/25 07:41:19;;;;;;;14.98;6.75;;;;;;;28.69;55.29;93184.13;4990800;28;20049;-83
2022/05/25 07:43:53;;;;;;;27.73;6.57;;;;;;;29.09;55.86;93180.19;4991442;28;20404;-83
2022/05/25 07:46:21;;;;;;;11.25;6.10;;;;;;;29.46;53.46;93185.53;4993244;28;20050;-82
2022/05/25 07:48:48;;;;;;;22.52;5.68;;;;;;;29.14;52.65;93181.84;4990866;28;20061;-81
2022/05/25 07:51:17;;;;;;;23.38;6.13;;;;;;;29.60;52.68;93184.47;4990633;28;20049;-82
2022/05/25 07:53:59;;;;;;;20.65;5.50;;;;;;;30.02;52.72;93187.97;4990985;28;20054;-82
2022/05/25 07:56:30;;;;;;;13.20;4.38;;;;;;;30.30;51.19;93166.09;4992344;28;20461;-82
2022/05/25 07:58:57;;;;;;;10.05;3.63;;;;;;;30.66;49.48;93178.44;4990328;28;20494;-82
2022/05/25 08:06:53;;;;;;;10.18;3.05;;;;;;;31.30;45.82;93185.00;4991850;28;19933;-83
2022/05/25 08:09:20;;;;;;;8.25;3.35;;;;;;;31.65;45.09;93186.94;4990644;28;20047;-82
2022/05/25 08:11:47;;;;;;;6.10;2.92;;;;;;;31.79;44.23;93183.84;4987146;28;20045;-82
2022/05/25 08:14:14;;;;;;;7.78;3.10;;;;;;;31.90;44.66;93178.81;4988537;28;20416;-82
2022/05/25 08:16:43;;;;;;;17.08;3.33;;;;;;;32.05;44.63;93169.25;4989843;28;20053;-83
2022/05/25 08:19:10;;;;;;;12.00;3.47;;;;;;;32.13;44.36;93155.00;4990053;28;20065;-82
2022/05/25 08:21:36;;;;;;;7.63;3.15;;;;;;;32.45;40.80;93188.69;4992193;28;20053;-82
2022/05/25 08:24:04;;;;;;;4.63;2.17;;;;;;;32.64;39.54;93182.59;4989934;28;20057;-82
2022/05/25 08:26:30;;;;;;;8.10;2.53;;;;;;;32.73;38.31;93184.28;4990310;28;20050;-80
2022/05/25 08:28:57;;;;;;;6.13;2.40;;;;;;;33.00;37.48;93193.16;4989758;28;20045;-82
2022/05/25 08:31:24;;;;;;;6.85;2.45;;;;;;;33.21;37.47;93189.31;4990221;28;20073;-82
2022/05/25 08:33:52;;;;;;;9.35;2.47;;;;;;;33.28;34.15;93194.75;4989940;28;20133;-82
2022/05/25 08:36:19;;;;;;;6.90;1.73;;;;;;;33.46;34.61;93195.06;4989942;28;20413;-81
2022/05/25 08:38:46;;;;;;;9.63;2.70;;;;;;;33.54;33.85;93203.97;4990224;28;20058;-81
2022/05/25 08:41:13;;;;;;;5.22;2.05;;;;;;;33.63;33.14;93202.97;4989573;28;20043;-82
2022/05/25 08:43:43;;;;;;;5.63;2.22;;;;;;;33.78;32.59;93198.63;4990271;28;20050;-82
2022/05/25 08:46:14;;;;;;;6.75;2.28;;;;;;;33.85;32.12;93186.16;4991537;28;20038;-83
2022/05/25 08:48:42;;;;;;;13.18;2.25;;;;;;;33.94;32.25;93193.91;4991645;28;20047;-82
2022/05/25 08:51:13;;;;;;;7.43;2.08;;;;;;;33.99;32.69;93196.25;4994155;28;20073;-83
2022/05/25 08:53:41;;;;;;;10.32;2.30;;;;;;;33.95;33.09;93195.44;4990120;28;20053;-82
2022/05/25 08:56:17;;;;;;;7.25;2.10;;;;;;;33.97;33.02;93190.50;4989908;28;20054;-84
2022/05/25 08:58:48;;;;;;;6.03;2.20;;;;;;;34.15;33.19;93191.91;4991500;28;20042;-81
2022/05/25 09:01:23;;;;;;;5.18;2.42;;;;;;;34.05;32.86;93199.41;4989176;28;20047;-81
2022/05/25 09:03:56;;;;;;;5.60;2.80;;;;;;;34.07;32.46;93193.72;4989177;28;20464;-79
2022/05/25 09:06:32;;;;;;;6.40;2.33;;;;;;;33.73;33.04;93194.34;4989414;28;20504;-81
2022/05/25 09:09:04;;;;;;;9.25;3.00;;;;;;;33.60;33.14;93167.16;4990340;28;20531;-83
2022/05/25 09:11:39;;;;;;;5.35;2.10;;;;;;;33.79;32.52;93200.91;4989229;28;20046;-81
2022/05/25 09:14:11;;;;;;;6.05;2.53;;;;;;;33.81;31.69;93198.66;4989383;28;20453;-80
2022/05/25 09:16:38;;;;;;;5.35;1.92;;;;;;;33.59;31.70;93201.00;4989303;28;20113;-81
2022/05/25 09:19:12;;;;;;;4.28;2.10;;;;;;;33.94;31.61;93211.78;4989477;28;20066;-82
2022/05/25 09:21:46;;;;;;;6.53;2.22;;;;;;;34.06;31.83;93206.25;4988866;28;20042;-82
2022/05/25 09:24:18;;;;;;;6.75;3.20;;;;;;;34.30;31.49;93203.53;4989145;28;20527;-81
2022/05/25 09:26:45;;;;;;;9.23;2.55;;;;;;;34.32;30.65;93207.38;4991451;28;20054;-82
2022/05/25 09:29:12;;;;;;;6.63;2.10;;;;;;;34.44;30.62;93200.28;4990800;28;21083;-82
2022/05/25 09:31:45;;;;;;;6.18;1.92;;;;;;;34.45;29.77;93218.59;4990782;28;20039;-82
2022/05/25 09:34:18;;;;;;;5.95;2.38;;;;;;;34.67;29.81;93216.19;4989413;28;20050;-85
2022/05/25 09:36:51;;;;;;;6.93;2.53;;;;;;;34.42;28.95;93211.28;4990538;28;20378;-83
2022/05/25 09:39:25;;;;;;;11.63;2.75;;;;;;;34.74;29.98;93213.59;4989985;28;20497;-82
2022/05/25 09:41:56;;;;;;;4.97;2.03;;;;;;;34.67;29.00;93208.19;4988749;28;20054;-81
2022/05/25 09:44:23;;;;;;;6.35;2.50;;;;;;;34.28;28.67;93200.47;4989057;28;20046;-80
2022/05/25 09:46:54;;;;;;;8.23;2.67;;;;;;;33.35;29.87;93204.00;4989070;28;20054;-80
2022/05/25 09:49:38;;;;;;;4.95;2.10;;;;;;;33.68;30.15;93210.63;4988577;28;20058;-81
2022/05/25 09:52:13;;;;;;;6.75;2.42;;;;;;;34.06;28.43;93205.50;4987832;28;20097;-82
2022/05/25 09:54:45;;;;;;;6.43;1.85;;;;;;;33.76;29.67;93196.31;4988684;28;20097;-80
2022/05/25 09:57:25;;;;;;;8.02;1.90;;;;;;;32.86;29.68;93190.22;4988891;28;20516;-81
2022/05/25 10:00:00;;;;;;;6.85;2.50;;;;;;;32.44;29.34;93186.38;4989951;28;20142;-82
2022/05/25 10:02:30;;;;;;;5.82;2.03;;;;;;;32.91;30.52;93172.06;4988538;28;20078;-82
2022/05/25 10:05:11;;;;;;;6.85;2.20;;;;;;;33.68;30.51;93181.31;4988227;28;20047;-83
2022/05/25 10:07:48;;;;;;;5.78;2.72;;;;;;;34.17;29.02;93185.09;4990182;28;20058;-83
2022/05/25 10:10:15;;;;;;;6.65;2.40;;;;;;;34.55;26.82;93187.84;4991093;28;20069;-81
2022/05/25 10:12:45;;;;;;;11.80;2.50;;;;;;;34.84;27.21;93185.50;4985609;28;20042;-83
2022/05/25 10:15:14;;;;;;;6.38;2.05;;;;;;;35.02;27.89;93160.88;4987558;28;20074;-82
2022/05/25 10:17:43;;;;;;;5.90;1.90;;;;;;;35.35;27.88;93186.00;4992588;28;20050;-82
2022/05/25 10:20:23;;;;;;;8.93;1.90;;;;;;;35.60;27.24;93184.66;4992580;28;20049;-82
2022/05/25 10:22:59;;;;;;;4.93;1.55;;;;;;;35.52;25.18;93163.25;4992993;28;20128;-82
2022/05/25 10:25:30;;;;;;;5.88;2.00;;;;;;;35.50;25.10;93178.88;4992746;28;20046;-82
2022/05/25 10:27:59;;;;;;;4.53;2.53;;;;;;;35.51;25.26;93174.28;4992975;28;20069;-82
2022/05/25 10:39:14;;;;;;;6.13;1.98;;;;;;;34.25;27.44;93175.28;4993011;28;20097;-82
2022/05/25 10:41:43;;;;;;;5.30;1.90;;;;;;;33.04;26.00;93170.03;4993639;28;20086;-81
2022/05/25 10:44:18;;;;;;;5.80;1.90;;;;;;;33.81;28.54;93166.69;4992181;28;20045;-81
2022/05/25 10:46:53;;;;;;;4.35;1.63;;;;;;;33.68;27.37;93163.47;4992440;28;20046;-81
2022/05/25 10:49:26;;;;;;;7.13;2.50;;;;;;;34.17;27.81;93155.00;4993733;28;20543;-82
2022/05/25 10:51:58;;;;;;;6.22;1.83;;;;;;;34.53;28.54;93163.44;4991891;28;20038;-82
2022/05/25 10:54:47;;;;;;;5.50;1.70;;;;;;;35.03;27.29;93157.84;4991942;28;20046;-83
2022/05/25 10:57:41;;;;;;;9.13;2.53;;;;;;;35.38;27.29;93152.44;4994151;28;20133;-83
2022/05/25 11:00:12;;;;;;;13.00;3.20;;;;;;;35.73;26.16;93161.13;4954785;28;20137;-83
2022/05/25 11:03:05;;;;;;;10.95;2.15;;;;;;;36.02;25.92;93146.03;4991853;28;20098;-82
2022/05/25 11:05:46;;;;;;;4.70;2.30;;;;;;;35.90;24.30;93146.34;4990394;28;20057;-83
2022/05/25 11:08:23;;;;;;;9.60;2.20;;;;;;;35.01;26.47;93146.78;4993383;28;20528;-81
2022/05/25 11:10:58;;;;;;;4.80;1.50;;;;;;;35.34;26.62;93146.34;4991979;28;20085;-81
2022/05/25 11:13:37;;;;;;;7.65;2.38;;;;;;;35.79;26.82;93140.94;4992623;28;20038;-82
2022/05/25 11:16:21;;;;;;;8.75;2.17;;;;;;;36.15;26.24;93143.06;4991884;28;20053;-84
2022/05/25 11:18:58;;;;;;;7.15;2.70;;;;;;;36.27;24.94;93145.41;4991788;28;20053;-82
2022/05/25 11:21:37;;;;;;;5.72;1.92;;;;;;;36.28;25.28;93116.75;4992708;28;20389;-82
2022/05/25 11:24:29;;;;;;;7.55;3.38;;;;;;;36.65;25.94;93142.50;4991281;28;20046;-81
2022/05/25 11:27:24;;;;;;;10.73;2.15;;;;;;;36.59;24.86;93144.75;4991660;28;20140;-82
2022/05/25 11:30:08;;;;;;;11.02;2.30;;;;;;;36.77;24.85;93134.13;4997420;28;20069;-82
2022/05/25 11:32:47;;;;;;;5.57;1.95;;;;;;;36.85;24.20;93145.59;5001052;28;20178;-82
2022/05/25 11:35:39;;;;;;;5.43;2.65;;;;;;;36.95;25.01;93145.97;5001360;28;20436;-81
2022/05/25 11:38:21;;;;;;;10.65;2.20;;;;;;;37.00;24.22;93133.00;4994375;28;20046;-82
2022/05/25 11:41:01;;;;;;;7.43;1.83;;;;;;;37.19;24.41;93130.38;4992856;28;20054;-79
2022/05/25 11:43:56;;;;;;;4.80;1.73;;;;;;;36.78;25.46;93129.53;4991986;28;20137;-82
2022/05/25 11:46:34;;;;;;;7.18;2.30;;;;;;;37.03;24.93;93131.47;4991493;28;20082;-81
2022/05/25 11:49:23;;;;;;;4.70;1.98;;;;;;;36.93;23.34;93134.91;4991183;28;20050;-81
2022/05/25 11:51:58;;;;;;;4.53;1.83;;;;;;;36.30;23.88;93130.50;4991010;28;20050;-82
2022/05/25 11:54:38;;;;;;;5.45;1.52;;;;;;;36.44;24.11;93127.91;4992674;28;20066;-82
2022/05/25 11:57:11;;;;;;;7.28;2.40;;;;;;;35.40;24.73;93124.25;4993254;28;20046;-80
2022/05/25 12:00:06;;;;;;;5.68;1.85;;;;;;;35.69;24.60;93119.09;4992418;28;20087;-82
2022/05/25 12:02:50;;;;;;;7.88;2.15;;;;;;;35.79;25.57;93106.97;4960941;28;20050;-80
2022/05/25 12:05:24;;;;;;;9.10;2.03;;;;;;;36.17;24.37;93106.78;4987032;28;20400;-81
2022/05/25 12:08:09;;;;;;;8.02;2.33;;;;;;;36.36;24.72;93107.59;4989610;28;20038;-81